Historyczne dane pomiarowe

Dodano dane terminowe – wersja testowa.

Dane z okresu 1951-2019

Wersja bazy: 1.34 [2019-03-16, lista zmian], aktualizacja planowana na 2019-04-15

Dane meteo z obszaru Polski uzyskane na podstawie danych udostępnionych przez Instytut Meteorologii i Gospodarki Wodnej – Państwowy Instytut Badawczy.

 

Wybierz Datę:    

       

TemperaturaWilgotnośćWiatrCiśnienieOpadyŚniegCzas trwania zjawisk
 Stacja t tx tn tng RH VA  wxwx mslp ppp RRR   cm mm wxwxwxwxwxwxwx
1961-08-14 15.4 19.8 9.5- 80.8- 3.7 0.7---- 0.0------------
1961-08-13 14.3 18.4 12.4- 92.3- 7.7 2.7---- 3.6------------
1961-08-12 18.5 22.7 16.6- 87.3- 7.7 0.3---- 0.6------------
1961-08-11 22.5 31.5 17.4- 83.3- 4.3 0.7---- 0.2------------
1961-08-10 21.6 27.2 17.2- 82.0- 6.7 1.0---- 1.9------------
1961-08-09 21.6 29.4 14.5- 71.5- 3.7 1.0---- 0.2------------
1961-08-08 18.9 23.8 15.5- 70.8- 4.0 0.7---- 0.0------------
1961-08-07 23.1 30.8 17.4- 74.0- 4.0 2.7---- 3.8------------
1961-08-06 22.7 30.7 12.0- 67.3- 1.7 2.3---- 0.0------------
1961-08-05 16.6 23.2 14.6- 80.5- 4.0 2.0---- 0.0------------
1961-08-04 16.7 20.9 11.3- 70.5- 6.3 1.3---- 0.0------------
1961-08-03 20.0 25.7 12.0- 70.0- 5.7 2.0---- 2.9------------
1961-08-02 18.3 26.1 8.2- 74.0- 1.0 0.7---- 0.0------------
1961-08-01 15.1 18.4 12.0- 78.3- 7.7 4.0---- 0.0------------
1961-07-31 14.7 19.2 13.1- 82.3- 5.7 3.7---- 0.0------------
1961-07-30 15.1 16.9 12.8- 96.8- 8.0 1.0---- 28.0------------
1961-07-29 15.0 18.9 14.8- 92.8- 8.0 2.0---- 11.0------------
1961-07-28 20.3 27.9 16.8- 88.8- 6.0 2.3---- 0.7------------
1961-07-27 21.2 26.9 13.8- 79.8- 5.3 2.3---- 0.0------------
1961-07-26 17.3 20.5 13.0- 75.0- 7.7 2.3---- 0.0------------
1961-07-25 15.0 19.4 12.1- 76.3- 5.3 2.7---- 0.0------------
1961-07-24 15.3 19.7 13.4- 89.3- 6.7 1.0---- 0.0------------
1961-07-23 15.7 19.4 11.2- 83.8- 7.3 1.0---- 0.0------------
1961-07-22 15.1 20.9 12.5- 84.0- 5.3 3.0---- 2.0------------
1961-07-21 16.3 22.7 11.7- 85.3- 4.0 1.7---- 1.5------------
1961-07-20 18.5 23.9 7.7- 74.0- 4.0 0.0---- 0.0------------
1961-07-19 16.6 23.0 7.8- 80.5- 4.0 0.3---- 0.0------------
1961-07-18 13.1 18.6 9.9- 92.3- 4.0 2.0---- 0.0------------
1961-07-17 16.0 23.6 10.0- 82.8- 6.7 1.3---- 6.8------------
1961-07-16 18.2 23.9 9.1- 77.5- 7.0 4.3---- 0.0------------
1961-07-15 18.0 23.9 9.4- 72.0- 2.7 1.7---- 0.0------------
1961-07-14 16.8 22.4 15.5- 71.5- 6.7 3.7---- 0.0------------
1961-07-13 23.2 29.9 12.5- 66.0- 4.0 2.7---- 1.7------------
1961-07-12 18.7 25.9 8.6- 78.0- 4.0 0.7---- 0.0------------
1961-07-11 15.8 21.4 10.0- 69.5- 5.0 1.7---- 0.0------------
1961-07-10 14.0 18.6 11.3- 77.3- 6.7 2.0---- 3.6------------
1961-07-09 17.0 24.0 7.1- 72.8- 5.3 2.0---- 6.5------------
1961-07-08 14.0 19.7 8.1- 78.3- 3.0 1.0---- 0.0------------
1961-07-07 13.5 18.4 10.6- 75.0- 4.0 1.3---- 1.9------------
1961-07-06 13.9 18.9 7.1- 68.8- 6.0 4.3---- 0.0------------
1961-07-05 16.2 21.4 14.5- 73.8- 6.0 3.0---- 0.0------------
1961-07-04 22.6 28.9 16.0- 72.5- 5.3 2.3---- 0.0------------
1961-07-03 22.9 30.7 11.9- 60.5- 0.0 0.0---- 0.0------------
1961-07-02 20.6 28.4 10.5- 74.0- 0.0 0.3---- 0.0------------
1961-07-01 18.8 24.7 11.1- 74.3- 1.0 0.3---- 0.0------------
1961-06-30 18.5 24.9 9.6- 76.0- 1.7 1.7---- 0.0------------
1961-06-29 14.9 18.8 9.1- 79.0- 5.7 2.0---- 0.0------------
1961-06-28 15.7 24.9 13.0- 82.3- 5.7 3.3---- 18.5------------
1961-06-27 24.6 32.9 15.8- 66.8- 5.3 2.3---- 0.0------------
1961-06-26 22.7 29.6 14.0- 69.5- 4.0 0.7---- 0.0------------
1961-06-25 20.7 27.9 11.6- 66.8- 4.3 2.3---- 0.0------------
1961-06-24 18.0 23.9 11.5- 67.5- 4.3 3.0---- 0.0------------
1961-06-23 17.0 21.9 13.0- 90.5- 6.3 0.7---- 3.2------------
1961-06-22 15.2 21.9 9.7- 78.3- 4.0 0.7---- 0.0------------
1961-06-21 16.6 22.4 5.3- 75.8- 3.7 0.7---- 1.4------------
1961-06-20 14.2 20.4 8.7- 79.8- 2.3 1.7---- 0.0------------
1961-06-19 17.8 21.9 15.5- 92.8- 6.3 1.3---- 0.0------------
1961-06-18 19.0 23.9 12.6- 80.0- 5.7 1.3---- 0.0------------
1961-06-17 16.4 21.9 10.4- 76.0- 6.3 1.7---- 0.0------------
1961-06-16 12.6 16.6 10.4- 92.3- 7.3 2.0---- 0.0------------
381.3 ms

 

Źródłem pochodzenia danych jest Instytut Meteorologii i Gospodarki Wodnej – Państwowy Instytut Badawczy. Dane Instytutu Meteorologii i Gospodarki Wodnej – Państwowego Instytutu Badawczego zostały przetworzone.

Dane źródłowe można odnaleźć na stronie https://dane.imgw.pl